This is the latest recevied weather packets stored in our database for station/object CA2RRL-10. If no packets are shown the sender has not sent any weather packets the latest 10 day(s).
| Time | Temp. | Humidity | Pressure | Rain* | Wind** | Luminosity | Snow |
|---|---|---|---|---|---|---|---|
| 1777487575 | 28.89° C | 20% | 1027.1 hPa | - | - | - | - |
| 1777486675 | 28.89° C | 20% | 1027.3 hPa | - | - | - | - |
| 1777485775 | 28.33° C | 21% | 1027.5 hPa | - | - | - | - |
| 1777484875 | 27.78° C | 22% | 1027.7 hPa | - | - | - | - |
| 1777483975 | 27.22° C | 22% | 1027.9 hPa | - | - | - | - |
| 1777483075 | 27.22° C | 23% | 1028.1 hPa | - | - | - | - |
| 1777482175 | 26.67° C | 24% | 1028.3 hPa | - | - | - | - |
| 1777481275 | 26.11° C | 24% | 1028.6 hPa | - | - | - | - |
| 1777480375 | 25.56° C | 27% | 1028.8 hPa | - | - | - | - |
| 1777479474 | 24.44° C | 28% | 1029 hPa | - | - | - | - |
| 1777478574 | 23.33° C | 29% | 1029.3 hPa | - | - | - | - |
| 1777477674 | 22.22° C | 32% | 1029.5 hPa | - | - | - | - |
| 1777476774 | 21.11° C | 34% | 1029.8 hPa | - | - | - | - |
| 1777475874 | 20° C | 36% | 1030 hPa | - | - | - | - |
| 1777474974 | 18.89° C | 40% | 1030.1 hPa | - | - | - | - |
| 1777474074 | 17.22° C | 43% | 1030.2 hPa | - | - | - | - |
| 1777473174 | 16.67° C | 45% | 1030.2 hPa | - | - | - | - |
| 1777472274 | 15.56° C | 48% | 1030.4 hPa | - | - | - | - |
| 1777471374 | 15° C | 50% | 1030.5 hPa | - | - | - | - |
| 1777470473 | 13.89° C | 52% | 1030.5 hPa | - | - | - | - |
| 1777469573 | 13.33° C | 53% | 1030.6 hPa | - | - | - | - |
| 1777468673 | 12.78° C | 55% | 1030.6 hPa | - | - | - | - |
| 1777467773 | 11.67° C | 57% | 1030.6 hPa | - | - | - | - |
| 1777466873 | 11.67° C | 56% | 1030.7 hPa | - | - | - | - |
| 1777465973 | 11.11° C | 56% | 1030.6 hPa | - | - | - | - |
* Rain since midnight (hover to see other rain measurements)
** Current wind speed in m/s (hover to see current wind gust speed)